Time;durP1;ratioP1;P1;durP2;ratioP2;P2;SDS_P1;SDS_P2;PMS_P1;PMS_P2;Temp;Humidity;BMP_temperature;BMP_pressure;BME280_temperature;BME280_humidity;BME280_pressure;Samples;Min_cycle;Max_cycle;Signal;HPM_P1;HPM_P2
2023/08/06 00:01:48;;;;;;;5.00;4.50;;;;;;;23.31;67.42;98176.98;104767;1266;62384;-22
2023/08/06 00:04:16;;;;;;;6.60;5.70;;;;;;;23.78;66.24;98175.01;104760;1266;75488;-22
2023/08/06 00:06:44;;;;;;;7.50;5.50;;;;;;;24.15;64.64;98168.73;104948;1266;73215;-21
2023/08/06 00:09:13;;;;;;;7.20;5.90;;;;;;;24.16;64.24;98167.42;104953;1266;73106;-22
2023/08/06 00:11:43;;;;;;;9.40;6.30;;;;;;;24.05;64.39;98167.23;104815;1266;61126;-22
2023/08/06 00:14:11;;;;;;;7.30;5.90;;;;;;;23.89;64.85;98167.31;105018;1266;61210;-22
2023/08/06 00:16:39;;;;;;;10.30;6.30;;;;;;;23.71;65.31;98168.48;104896;1266;75481;-22
2023/08/06 00:19:07;;;;;;;9.30;6.40;;;;;;;23.55;65.78;98161.33;104765;1266;74453;-21
2023/08/06 00:21:35;;;;;;;9.90;6.80;;;;;;;23.39;66.49;98153.16;104803;1270;76665;-22
2023/08/06 00:24:06;;;;;;;8.80;6.30;;;;;;;23.24;66.91;98157.15;105497;1258;63900;-21
2023/08/06 00:26:33;;;;;;;6.70;4.80;;;;;;;23.17;67.32;98151.95;105509;1258;61421;-22
2023/08/06 00:29:01;;;;;;;8.30;6.20;;;;;;;23.63;66.22;98152.61;105507;1262;75529;-22
2023/08/06 00:31:29;;;;;;;7.60;5.40;;;;;;;24.00;64.80;98151.50;105573;1260;76797;-22
2023/08/06 00:33:57;;;;;;;10.80;7.10;;;;;;;24.00;64.35;98149.98;105506;1258;76734;-22
2023/08/06 00:36:25;;;;;;;7.50;5.70;;;;;;;23.85;64.61;98143.09;105108;1258;61484;-22
2023/08/06 00:38:52;;;;;;;7.50;6.60;;;;;;;23.67;65.07;98146.11;105207;1260;61134;-22
2023/08/06 00:41:21;;;;;;;9.20;6.30;;;;;;;23.49;65.66;98141.00;105604;1258;75516;-22
2023/08/06 00:43:49;;;;;;;13.30;6.80;;;;;;;23.36;65.90;98139.11;105617;1263;75801;-22
2023/08/06 00:46:17;;;;;;;8.00;7.20;;;;;;;23.22;66.41;98135.08;105476;1257;76881;-22
2023/08/06 00:48:46;;;;;;;9.10;7.30;;;;;;;23.11;66.89;98137.34;105407;1262;61523;-22
2023/08/06 00:51:14;;;;;;;6.50;5.70;;;;;;;23.04;67.24;98135.84;105272;1257;61435;-22
2023/08/06 00:53:42;;;;;;;7.10;6.40;;;;;;;23.41;66.56;98135.84;105217;1258;73063;-22
2023/08/06 00:56:10;;;;;;;12.80;6.20;;;;;;;23.65;65.48;98133.00;105319;1257;76777;-23
2023/08/06 00:58:38;;;;;;;11.00;5.80;;;;;;;23.61;65.30;98133.03;105506;1259;72688;-22
2023/08/06 01:01:05;;;;;;;6.80;6.10;;;;;;;23.47;65.68;98133.20;105596;1258;61119;-22
2023/08/06 01:03:33;;;;;;;11.40;6.80;;;;;;;23.29;66.09;98127.70;105418;1263;61113;-21
2023/08/06 01:06:01;;;;;;;7.90;7.10;;;;;;;23.14;66.53;98126.33;105267;1262;75519;-21
2023/08/06 01:08:54;;;;;;;7.50;6.30;;;;;;;23.03;66.89;98127.70;105210;1265;76523;-22
2023/08/06 01:12:10;;;;;;;7.60;6.60;;;;;;;22.86;67.49;98130.23;105152;1260;74143;-22
2023/08/06 01:14:53;;;;;;;6.80;5.80;;;;;;;22.86;67.90;98126.73;105217;1262;61731;-21
2023/08/06 01:17:21;;;;;;;9.10;6.80;;;;;;;23.37;66.28;98123.94;105142;1257;61267;-22
2023/08/06 01:19:49;;;;;;;7.10;6.30;;;;;;;23.50;65.61;98126.73;105128;1264;71851;-22
2023/08/06 01:22:17;;;;;;;7.90;6.40;;;;;;;23.44;65.61;98124.10;105279;1263;75129;-22
2023/08/06 01:24:48;;;;;;;10.10;6.80;;;;;;;23.28;66.07;98121.66;105231;1260;74984;-22
2023/08/06 01:27:39;;;;;;;8.70;7.00;;;;;;;23.10;66.59;98121.39;104906;1260;64184;-22
2023/08/06 01:30:12;;;;;;;8.80;7.50;;;;;;;22.88;67.17;98123.21;105009;1265;62380;-22
2023/08/06 01:32:43;;;;;;;11.90;6.50;;;;;;;22.69;67.95;98117.23;105088;1263;73088;-22
2023/08/06 01:35:12;;;;;;;5.70;5.10;;;;;;;22.59;68.54;98116.71;105121;1260;74479;-22
2023/08/06 01:37:40;;;;;;;6.00;4.90;;;;;;;22.93;67.86;98110.13;105245;1257;75166;-23
2023/08/06 01:40:11;;;;;;;10.20;6.20;;;;;;;23.22;66.70;98112.13;105125;1260;62915;-23
2023/08/06 01:42:39;;;;;;;9.50;6.50;;;;;;;23.18;66.61;98111.97;104987;1264;62499;-23
2023/08/06 01:45:08;;;;;;;9.30;7.30;;;;;;;23.04;66.96;98108.92;105580;1262;75484;-23
2023/08/06 01:47:36;;;;;;;10.60;6.60;;;;;;;22.87;67.43;98111.98;105301;1260;76817;-23
2023/08/06 01:50:05;;;;;;;8.50;6.50;;;;;;;22.69;67.97;98116.36;105516;1258;72728;-23
2023/08/06 01:52:32;;;;;;;8.50;7.10;;;;;;;22.51;68.56;98116.92;105570;1258;62794;-23
2023/08/06 01:55:00;;;;;;;6.00;4.80;;;;;;;22.37;69.17;98115.23;105416;1260;63450;-23
2023/08/06 01:57:28;;;;;;;10.00;5.80;;;;;;;22.78;68.54;98109.33;105308;1262;76081;-23
2023/08/06 01:59:56;;;;;;;7.50;6.10;;;;;;;23.15;67.13;98111.70;105272;1258;76821;-23
2023/08/06 02:02:24;;;;;;;8.20;6.20;;;;;;;23.16;66.86;98114.78;105507;1259;72713;-23
2023/08/06 02:04:52;;;;;;;9.50;7.10;;;;;;;22.98;67.23;98117.92;105499;1262;61181;-23
2023/08/06 02:07:20;;;;;;;8.10;6.90;;;;;;;22.78;67.69;98119.26;105309;1260;62269;-23
2023/08/06 02:09:48;;;;;;;8.00;7.20;;;;;;;22.60;68.13;98117.36;105226;1258;75561;-23
2023/08/06 02:12:15;;;;;;;9.10;7.10;;;;;;;22.40;68.77;98120.88;105208;1257;78401;-23
2023/08/06 02:14:43;;;;;;;7.60;6.70;;;;;;;22.24;69.42;98116.55;105128;1260;74924;-23
2023/08/06 02:17:11;;;;;;;6.90;5.00;;;;;;;22.12;70.27;98116.20;105244;1260;64115;-23
2023/08/06 02:19:40;;;;;;;7.20;5.50;;;;;;;22.58;69.58;98114.92;105469;1257;61487;-23
2023/08/06 02:22:08;;;;;;;8.70;6.50;;;;;;;23.00;67.95;98110.91;105132;1264;73167;-23
2023/08/06 02:26:22;;;;;;;12.20;7.10;;;;;;;22.96;67.61;98117.52;102599;1293;601097;-22
2023/08/06 02:28:50;;;;;;;8.70;7.50;;;;;;;22.71;68.13;98117.45;105154;1269;61504;-21
2023/08/06 02:31:17;;;;;;;9.10;7.70;;;;;;;22.50;68.96;98119.17;105183;1267;61554;-22
2023/08/06 02:33:45;;;;;;;8.10;7.30;;;;;;;22.28;69.67;98114.45;105089;1270;75187;-22
2023/08/06 02:36:13;;;;;;;10.30;7.80;;;;;;;22.12;70.20;98118.45;105122;1269;74747;-22
2023/08/06 02:38:41;;;;;;;7.30;6.30;;;;;;;22.00;70.91;98116.35;105109;1274;72699;-22
2023/08/06 02:41:09;;;;;;;9.30;6.60;;;;;;;22.40;70.24;98114.52;103211;1266;2695181;-22
2023/08/06 02:43:37;;;;;;;7.20;6.50;;;;;;;22.67;69.04;98111.34;105081;1279;64102;-22
2023/08/06 02:46:05;;;;;;;8.50;7.20;;;;;;;22.63;68.95;98116.21;105125;1268;76135;-22
2023/08/06 02:48:33;;;;;;;13.40;8.10;;;;;;;22.47;69.27;98113.38;105227;1266;77352;-22
2023/08/06 02:51:02;;;;;;;8.20;7.30;;;;;;;22.28;69.90;98114.30;105218;1266;73975;-22
2023/08/06 02:53:31;;;;;;;9.70;8.00;;;;;;;22.10;70.47;98110.93;105113;1269;61048;-21
2023/08/06 02:56:02;;;;;;;8.60;5.80;;;;;;;21.96;71.37;98114.65;104895;1264;61958;-22
2023/08/06 02:58:38;;;;;;;11.50;6.40;;;;;;;22.37;70.59;98109.55;105184;1266;74451;-23
2023/08/06 03:01:13;;;;;;;7.90;6.70;;;;;;;22.64;69.27;98108.60;105200;1266;76636;-23
2023/08/06 03:03:50;;;;;;;8.40;7.30;;;;;;;22.58;69.23;98101.51;105065;1268;76565;-23
2023/08/06 03:06:22;;;;;;;10.00;7.40;;;;;;;22.43;69.62;98104.58;105210;1267;61662;-23
2023/08/06 03:08:51;;;;;;;9.10;7.70;;;;;;;22.28;70.07;98103.33;105248;1267;61023;-23
2023/08/06 03:11:20;;;;;;;9.90;7.90;;;;;;;22.19;70.47;98100.73;105223;1266;74854;-23
2023/08/06 03:13:48;;;;;;;8.20;6.30;;;;;;;22.21;70.75;98100.52;105185;1266;75778;-23
2023/08/06 03:16:16;;;;;;;7.90;6.90;;;;;;;22.70;69.46;98102.11;105066;1264;71469;-23
2023/08/06 03:18:44;;;;;;;7.30;6.60;;;;;;;23.10;68.02;98101.85;105180;1266;61608;-23
2023/08/06 03:21:12;;;;;;;9.80;7.50;;;;;;;23.22;67.35;98100.45;105167;1267;61444;-23
2023/08/06 03:23:40;;;;;;;9.90;7.30;;;;;;;23.20;67.14;98103.19;105251;1269;74483;-23
2023/08/06 03:26:08;;;;;;;10.10;7.20;;;;;;;23.12;67.37;98104.89;105213;1266;75806;-23
2023/08/06 03:28:37;;;;;;;12.40;7.90;;;;;;;23.05;67.68;98102.86;105506;1263;74813;-23
2023/08/06 03:31:05;;;;;;;8.10;6.60;;;;;;;23.02;67.72;98098.66;105514;1271;61539;-22
2023/08/06 03:33:40;;;;;;;10.20;6.90;;;;;;;23.30;67.44;98095.89;105493;1258;62782;-23
2023/08/06 03:36:11;;;;;;;12.10;7.00;;;;;;;23.79;65.79;98096.67;105596;1262;74411;-23
2023/08/06 03:38:39;;;;;;;9.50;7.40;;;;;;;23.99;64.87;98097.25;105518;1263;78330;-23
2023/08/06 03:41:08;;;;;;;8.30;7.50;;;;;;;24.04;64.49;98095.11;105520;1263;76615;-22
2023/08/06 03:43:36;;;;;;;9.80;7.90;;;;;;;23.99;64.28;98092.94;105502;1258;61098;-23
2023/08/06 03:46:05;;;;;;;9.80;8.20;;;;;;;23.95;64.52;98090.88;105430;1262;61134;-23
2023/08/06 03:48:34;;;;;;;9.90;8.30;;;;;;;23.94;64.62;98086.88;105540;1258;74454;-22
2023/08/06 03:51:02;;;;;;;9.40;8.10;;;;;;;23.93;64.56;98086.27;105545;1263;73452;-23
2023/08/06 03:53:30;;;;;;;9.90;6.70;;;;;;;23.91;64.71;98083.04;105420;1264;71768;-23
2023/08/06 03:55:59;;;;;;;8.90;6.10;;;;;;;24.04;64.82;98078.15;105521;1259;61167;-23
2023/08/06 03:58:29;;;;;;;7.90;6.20;;;;;;;24.65;63.20;98071.10;105224;1264;62498;-23
2023/08/06 04:01:01;;;;;;;8.90;7.00;;;;;;;24.95;61.70;98066.70;105222;1265;71809;-23
2023/08/06 04:03:34;;;;;;;8.70;7.50;;;;;;;25.01;61.26;98064.00;105264;1258;75866;-23
2023/08/06 04:06:03;;;;;;;8.00;7.10;;;;;;;24.99;61.18;98062.54;105319;1264;75257;-23
2023/08/06 04:08:31;;;;;;;14.00;7.00;;;;;;;24.97;61.09;98054.38;105262;1261;61077;-23
2023/08/06 04:10:59;;;;;;;11.30;7.90;;;;;;;24.98;61.01;98053.69;105287;1263;61209;-23
2023/08/06 04:13:27;;;;;;;8.50;7.20;;;;;;;24.98;60.92;98050.92;105369;1267;74471;-22
2023/08/06 04:16:02;;;;;;;10.70;7.90;;;;;;;24.99;61.01;98049.81;105433;1263;76597;-23
2023/08/06 04:18:30;;;;;;;11.50;7.50;;;;;;;25.07;60.61;98051.43;105202;1258;74122;-23
2023/08/06 04:20:57;;;;;;;8.30;6.90;;;;;;;25.12;60.46;98054.95;105089;1257;61144;-23
2023/08/06 04:23:25;;;;;;;8.90;7.40;;;;;;;25.17;60.40;98049.54;105359;1257;61068;-23
2023/08/06 04:25:57;;;;;;;9.10;7.90;;;;;;;25.24;60.13;98045.96;105474;1263;73096;-22
2023/08/06 04:28:28;;;;;;;9.10;7.50;;;;;;;25.27;59.98;98043.55;105267;1257;76819;-23
2023/08/06 04:30:55;;;;;;;11.00;7.40;;;;;;;25.30;60.01;98038.90;105454;1257;75721;-23
2023/08/06 04:33:23;;;;;;;8.00;7.10;;;;;;;25.34;59.88;98033.67;105230;1261;61140;-23
2023/08/06 04:35:58;;;;;;;12.00;7.70;;;;;;;25.46;59.68;98035.02;105517;1262;62454;-23
2023/08/06 04:38:26;;;;;;;8.70;7.70;;;;;;;25.53;59.43;98025.89;105237;1267;75545;-22
2023/08/06 04:40:54;;;;;;;10.80;7.80;;;;;;;25.62;59.19;98023.23;105223;1264;78470;-23
2023/08/06 04:43:23;;;;;;;12.00;7.80;;;;;;;25.76;58.96;98018.20;105555;1261;74118;-23
2023/08/06 04:45:53;;;;;;;9.90;6.80;;;;;;;25.87;58.43;98013.64;105488;1258;61170;-23
2023/08/06 04:48:20;;;;;;;7.60;6.70;;;;;;;25.92;58.24;98013.16;105255;1266;61103;-23
2023/08/06 04:50:49;;;;;;;11.10;7.30;;;;;;;25.95;58.10;98010.05;105458;1258;73120;-23
2023/08/06 04:53:17;;;;;;;9.00;7.30;;;;;;;26.03;57.94;98004.58;105304;1265;73257;-23
2023/08/06 04:55:45;;;;;;;8.30;7.50;;;;;;;26.14;57.76;97998.25;105506;1257;72725;-22
2023/08/06 04:58:13;;;;;;;12.00;7.90;;;;;;;26.22;57.70;97991.50;105530;1258;61180;-23
2023/08/06 05:00:40;;;;;;;10.40;7.30;;;;;;;26.32;57.22;97993.92;105192;1263;61084;-23
2023/08/06 05:03:08;;;;;;;11.00;7.70;;;;;;;26.44;56.83;97992.01;105215;1264;73056;-23
2023/08/06 05:05:36;;;;;;;10.30;6.90;;;;;;;26.52;56.68;97983.58;105456;1262;75746;-23
2023/08/06 05:08:04;;;;;;;11.40;7.60;;;;;;;26.62;56.38;97983.20;105360;1260;75207;-22
2023/08/06 05:10:32;;;;;;;8.90;7.10;;;;;;;26.72;56.14;97979.44;105349;1257;62601;-23
2023/08/06 05:13:00;;;;;;;8.70;7.30;;;;;;;26.81;55.64;97975.45;105435;1257;61186;-23
2023/08/06 05:15:28;;;;;;;8.80;6.90;;;;;;;26.84;55.49;97976.13;105549;1257;75537;-23
2023/08/06 05:17:56;;;;;;;10.20;6.90;;;;;;;26.86;55.75;97977.73;105265;1258;75705;-23
2023/08/06 05:20:24;;;;;;;9.80;7.20;;;;;;;26.97;55.54;97971.98;105421;1263;73980;-23
2023/08/06 05:22:52;;;;;;;9.30;7.40;;;;;;;27.08;55.32;97970.44;105502;1257;61088;-24
2023/08/06 05:25:20;;;;;;;10.20;7.60;;;;;;;27.17;54.86;97970.09;105225;1264;63181;-23
2023/08/06 05:27:47;;;;;;;11.20;7.60;;;;;;;27.24;54.62;97965.00;105329;1264;75645;-23
2023/08/06 05:30:15;;;;;;;11.50;7.30;;;;;;;27.29;54.53;97965.35;105110;1258;73281;-23
2023/08/06 05:32:43;;;;;;;8.50;7.30;;;;;;;27.36;54.69;97965.15;105079;1257;74075;-23
2023/08/06 05:35:11;;;;;;;8.00;7.20;;;;;;;27.49;54.04;97962.86;105384;1263;63922;-23
2023/08/06 05:37:39;;;;;;;8.60;6.80;;;;;;;27.57;54.28;97955.85;105393;1262;63896;-23
2023/08/06 05:40:08;;;;;;;11.20;7.00;;;;;;;27.70;53.82;97950.63;105192;1260;75252;-23
2023/08/06 05:42:36;;;;;;;10.60;6.30;;;;;;;27.82;53.47;97942.38;105088;1266;74562;-23
2023/08/06 05:45:04;;;;;;;8.30;6.60;;;;;;;27.83;53.10;97938.66;105307;1258;76670;-23
2023/08/06 05:47:32;;;;;;;10.10;6.90;;;;;;;27.87;53.44;97933.33;105209;1260;61096;-23
2023/08/06 05:50:00;;;;;;;8.10;7.20;;;;;;;27.92;53.09;97925.25;105654;1254;61961;-24
2023/08/06 05:52:27;;;;;;;9.30;7.10;;;;;;;27.98;53.39;97924.78;105623;1259;74567;-23
2023/08/06 05:54:55;;;;;;;11.20;6.90;;;;;;;28.02;53.03;97922.86;105578;1259;78406;-23
2023/08/06 05:57:23;;;;;;;9.50;7.20;;;;;;;28.05;52.68;97917.02;105523;1259;74104;-23
2023/08/06 05:59:51;;;;;;;8.80;7.10;;;;;;;28.00;52.57;97917.41;105505;1254;62746;-23
2023/08/06 06:02:19;;;;;;;7.10;6.50;;;;;;;27.92;53.12;97912.27;105594;1255;61467;-23
2023/08/06 06:04:46;;;;;;;8.00;6.50;;;;;;;27.92;53.48;97911.88;105658;1260;73059;-23
2023/08/06 06:07:14;;;;;;;10.90;7.00;;;;;;;27.95;52.94;97907.34;105576;1258;72896;-23
2023/08/06 06:09:42;;;;;;;7.10;6.40;;;;;;;27.93;53.27;97906.85;105632;1254;75207;-23
2023/08/06 06:12:10;;;;;;;8.90;6.70;;;;;;;27.93;53.25;97903.27;105586;1262;61528;-23
2023/08/06 06:14:38;;;;;;;12.00;6.60;;;;;;;27.94;53.43;97901.61;105584;1253;61139;-23
2023/08/06 06:17:06;;;;;;;10.70;7.00;;;;;;;27.99;53.10;97894.88;105548;1254;75502;-24
2023/08/06 06:19:33;;;;;;;9.90;6.90;;;;;;;28.03;53.23;97894.39;105580;1258;78377;-23
2023/08/06 06:22:02;;;;;;;9.40;6.80;;;;;;;28.13;53.15;97894.48;105571;1260;75607;-23
2023/08/06 06:24:30;;;;;;;9.90;6.80;;;;;;;28.18;52.70;97886.15;105525;1254;63935;-23
2023/08/06 06:26:58;;;;;;;8.50;6.30;;;;;;;28.07;52.76;97883.69;105503;1254;61396;-23
2023/08/06 06:29:26;;;;;;;8.40;7.40;;;;;;;28.12;52.82;97878.45;105563;1254;75844;-23
2023/08/06 06:31:54;;;;;;;11.40;6.50;;;;;;;28.20;52.99;97875.74;105439;1259;76803;-23
2023/08/06 06:34:22;;;;;;;7.90;6.90;;;;;;;28.30;52.06;97871.05;105564;1255;75201;-23
2023/08/06 06:36:50;;;;;;;7.60;6.10;;;;;;;28.36;52.22;97866.34;105461;1254;61555;-23
2023/08/06 06:39:18;;;;;;;10.20;6.40;;;;;;;28.44;51.87;97863.23;105461;1254;61058;-23
2023/08/06 06:41:46;;;;;;;8.20;6.30;;;;;;;28.49;51.64;97854.86;105589;1254;76346;-23
2023/08/06 06:44:20;;;;;;;6.90;6.20;;;;;;;28.60;51.07;97853.77;105643;1254;75883;-23
2023/08/06 06:46:48;;;;;;;9.70;6.80;;;;;;;28.69;50.94;97853.98;105627;1257;75213;-23
2023/08/06 06:49:15;;;;;;;10.50;6.50;;;;;;;28.79;51.45;97847.38;105527;1257;62129;-23
2023/08/06 06:51:43;;;;;;;7.90;6.30;;;;;;;28.97;50.43;97840.52;105434;1258;61119;-23
2023/08/06 06:54:11;;;;;;;7.00;5.90;;;;;;;29.02;50.52;97839.56;105568;1260;77420;-23
2023/08/06 06:56:39;;;;;;;11.30;5.60;;;;;;;29.06;50.18;97834.47;105590;1260;74492;-24
2023/08/06 06:59:07;;;;;;;13.30;5.90;;;;;;;29.17;49.45;97835.63;105274;1257;72704;-23
2023/08/06 07:01:35;;;;;;;6.80;5.80;;;;;;;29.33;49.15;97834.68;105534;1254;61075;-23
2023/08/06 07:04:04;;;;;;;8.60;5.70;;;;;;;29.38;48.47;97830.27;105550;1254;62468;-23
2023/08/06 07:06:32;;;;;;;9.80;6.50;;;;;;;29.44;48.74;97832.23;105559;1254;73579;-23
2023/08/06 07:09:00;;;;;;;9.10;5.80;;;;;;;29.50;48.40;97827.09;105604;1259;76846;-23
2023/08/06 07:11:28;;;;;;;9.90;5.60;;;;;;;29.58;48.57;97831.22;105597;1259;75524;-23
2023/08/06 07:13:57;;;;;;;9.70;5.70;;;;;;;29.75;48.44;97825.56;105457;1255;61844;-23
2023/08/06 07:16:26;;;;;;;6.90;5.50;;;;;;;29.88;48.44;97819.29;105471;1262;61211;-22
2023/08/06 07:18:54;;;;;;;8.10;5.70;;;;;;;30.03;47.83;97813.30;105708;1259;68096;-23
2023/08/06 07:21:22;;;;;;;5.50;5.00;;;;;;;30.11;47.63;97808.45;105735;1254;66800;-23
2023/08/06 07:23:50;;;;;;;6.90;5.50;;;;;;;30.20;47.49;97804.61;105630;1254;62697;-24
2023/08/06 07:26:18;;;;;;;8.10;5.20;;;;;;;30.21;47.43;97803.15;105566;1260;61131;-23
2023/08/06 07:28:46;;;;;;;7.00;5.80;;;;;;;30.25;47.30;97799.08;105462;1260;61110;-23
2023/08/06 07:31:14;;;;;;;8.10;4.70;;;;;;;30.37;47.34;97795.35;105409;1261;63861;-23
2023/08/06 07:33:41;;;;;;;6.20;5.30;;;;;;;30.43;46.10;97792.07;105610;1260;65507;-23
2023/08/06 07:36:13;;;;;;;8.80;5.50;;;;;;;30.39;46.15;97787.02;105497;1260;63832;-23
2023/08/06 07:38:41;;;;;;;5.30;4.70;;;;;;;30.44;46.09;97789.21;105554;1262;61883;-23
2023/08/06 07:41:09;;;;;;;7.90;5.80;;;;;;;30.52;45.74;97790.29;105646;1260;61169;-22
2023/08/06 07:43:37;;;;;;;6.10;5.30;;;;;;;30.63;45.69;97786.80;105599;1259;63699;-22
2023/08/06 07:46:05;;;;;;;9.50;5.20;;;;;;;30.84;45.52;97784.01;105662;1260;67822;-22
2023/08/06 07:48:33;;;;;;;8.10;5.40;;;;;;;31.00;44.77;97781.55;105665;1254;66268;-22
2023/08/06 07:51:01;;;;;;;7.50;4.70;;;;;;;31.02;44.59;97783.87;105632;1260;61153;-22
2023/08/06 07:53:32;;;;;;;6.80;5.30;;;;;;;31.17;44.77;97779.00;105589;1260;61168;-22
2023/08/06 07:56:02;;;;;;;6.80;5.10;;;;;;;31.35;44.46;97774.38;105674;1259;65020;-22
2023/08/06 07:58:30;;;;;;;9.30;5.60;;;;;;;31.42;43.53;97764.80;105704;1254;67301;-22
2023/08/06 08:00:57;;;;;;;5.70;4.90;;;;;;;31.40;43.63;97766.66;105556;1253;62609;-22
2023/08/06 08:03:27;;;;;;;5.90;4.70;;;;;;;31.54;43.95;97763.05;105623;1254;61155;-22
2023/08/06 08:05:58;;;;;;;7.30;4.60;;;;;;;31.81;43.52;97757.77;105604;1255;61105;-22
2023/08/06 08:08:26;;;;;;;5.10;4.60;;;;;;;31.98;42.90;97756.17;105329;1254;68037;-22
2023/08/06 08:10:55;;;;;;;5.70;5.00;;;;;;;32.08;42.93;97755.38;105537;1259;65685;-22
2023/08/06 08:13:22;;;;;;;6.00;5.00;;;;;;;32.27;42.34;97750.41;105593;1254;65587;-22
2023/08/06 08:15:58;;;;;;;8.20;4.60;;;;;;;32.43;41.63;97748.53;105621;1259;61288;-23
2023/08/06 08:18:27;;;;;;;7.40;4.50;;;;;;;32.38;41.20;97743.13;105477;1262;61119;-23
2023/08/06 08:20:55;;;;;;;4.90;4.00;;;;;;;32.22;41.36;97736.38;105591;1254;64977;-22
2023/08/06 08:23:22;;;;;;;6.30;4.70;;;;;;;32.09;41.89;97741.96;105530;1256;66857;-23
2023/08/06 08:25:51;;;;;;;6.70;5.10;;;;;;;32.16;42.10;97738.43;105563;1259;65612;-22
2023/08/06 08:28:19;;;;;;;8.80;4.70;;;;;;;32.38;42.04;97740.23;105264;1260;61187;-23
2023/08/06 08:30:47;;;;;;;9.80;4.90;;;;;;;32.59;41.69;97745.78;105698;1254;61182;-22
2023/08/06 08:33:15;;;;;;;7.60;5.80;;;;;;;32.77;41.24;97742.59;105644;1257;63717;-22
2023/08/06 08:35:42;;;;;;;7.60;5.10;;;;;;;32.85;40.72;97735.23;105632;1259;65644;-22
2023/08/06 08:38:10;;;;;;;8.80;5.30;;;;;;;32.78;40.58;97726.31;105301;1260;62515;-23
2023/08/06 08:40:41;;;;;;;8.20;4.90;;;;;;;32.70;41.26;97723.43;105319;1260;61257;-22
2023/08/06 08:43:09;;;;;;;6.40;4.90;;;;;;;32.87;40.84;97720.02;105559;1262;61180;-22
2023/08/06 08:45:38;;;;;;;8.10;5.00;;;;;;;32.89;40.06;97712.02;105639;1260;63861;-22
2023/08/06 08:48:06;;;;;;;5.30;4.40;;;;;;;32.87;39.97;97718.95;105627;1260;64349;-22
2023/08/06 08:50:34;;;;;;;5.80;4.20;;;;;;;32.99;39.98;97722.46;105603;1254;62554;-22
2023/08/06 08:53:01;;;;;;;7.70;4.50;;;;;;;33.15;39.96;97718.23;105653;1257;61130;-22
2023/08/06 08:55:29;;;;;;;8.20;4.60;;;;;;;33.26;39.20;97714.75;105610;1254;61048;-22
2023/08/06 08:57:57;;;;;;;6.10;4.70;;;;;;;33.35;39.36;97711.23;105722;1259;66398;-23
2023/08/06 09:00:25;;;;;;;5.50;4.30;;;;;;;33.54;39.02;97719.33;105691;1259;67854;-22
2023/08/06 09:02:53;;;;;;;6.40;4.50;;;;;;;33.71;38.45;97708.58;105701;1256;64017;-23
2023/08/06 09:05:21;;;;;;;8.80;4.30;;;;;;;33.74;37.98;97706.77;105568;1260;61125;-23
2023/08/06 09:07:49;;;;;;;5.80;3.90;;;;;;;33.92;38.59;97705.38;105691;1254;61059;-23
2023/08/06 09:10:17;;;;;;;9.70;4.20;;;;;;;34.23;38.20;97699.82;105567;1254;65026;-23
2023/08/06 09:12:45;;;;;;;6.20;4.20;;;;;;;34.44;37.50;97699.55;105575;1254;68351;-23
2023/08/06 09:15:13;;;;;;;11.10;4.40;;;;;;;34.59;36.85;97692.90;105556;1257;65990;-23
2023/08/06 09:17:41;;;;;;;7.50;4.00;;;;;;;34.68;36.66;97685.56;105640;1254;61161;-23
2023/08/06 09:20:14;;;;;;;5.40;4.00;;;;;;;34.78;36.30;97676.48;105623;1259;61171;-23
2023/08/06 09:22:42;;;;;;;6.10;3.80;;;;;;;34.85;35.62;97670.17;105342;1260;68004;-23
2023/08/06 09:25:10;;;;;;;11.10;3.70;;;;;;;34.67;35.38;97663.44;105462;1260;67942;-23
2023/08/06 09:27:37;;;;;;;11.20;3.90;;;;;;;34.69;35.35;97660.23;105403;1253;71403;-23
2023/08/06 09:30:06;;;;;;;8.80;4.70;;;;;;;34.76;35.70;97659.93;105241;1256;61177;-23
2023/08/06 09:32:47;;;;;;;8.10;4.20;;;;;;;34.83;35.58;97653.57;105531;1254;61041;-24
2023/08/06 09:35:16;;;;;;;6.10;3.80;;;;;;;34.92;35.49;97653.40;105635;1260;67033;-23
2023/08/06 09:45:22;;;;;;;8.70;3.70;;;;;;;34.98;35.15;97629.27;102772;1294;600251;-23
2023/08/06 09:47:50;;;;;;;6.30;3.80;;;;;;;35.09;34.77;97622.46;104797;1264;61206;-22
2023/08/06 09:50:19;;;;;;;6.50;3.40;;;;;;;35.31;34.59;97614.80;104841;1271;61183;-22
2023/08/06 09:52:48;;;;;;;6.10;3.40;;;;;;;35.42;34.13;97607.36;104875;1270;66098;-22
2023/08/06 09:55:16;;;;;;;5.50;3.50;;;;;;;35.46;33.63;97603.58;104893;1272;65553;-22
2023/08/06 09:57:44;;;;;;;7.50;3.60;;;;;;;35.63;33.36;97602.46;104826;1271;63955;-22
2023/08/06 10:00:13;;;;;;;5.00;3.60;;;;;;;35.72;33.32;97601.59;103154;1266;61115;-22
2023/08/06 10:02:40;;;;;;;4.50;3.20;;;;;;;35.71;32.87;97602.96;105235;1264;61182;-22
2023/08/06 10:05:09;;;;;;;3.50;2.40;;;;;;;35.54;32.46;97592.70;104969;1267;66343;-22
2023/08/06 10:07:39;;;;;;;7.60;3.70;;;;;;;35.30;32.85;97601.77;105116;1263;67857;-23
2023/08/06 10:10:08;;;;;;;4.50;3.10;;;;;;;35.46;33.43;97602.73;104833;1271;66700;-23
2023/08/06 10:12:39;;;;;;;10.20;3.10;;;;;;;35.74;33.01;97597.71;105633;1254;61164;-23
2023/08/06 10:15:09;;;;;;;9.40;3.20;;;;;;;35.88;32.99;97585.25;105380;1261;61691;-23
2023/08/06 10:25:18;;;;;;;8.80;4.00;;;;;;;35.66;32.85;97584.59;102595;1292;600330;-22
2023/08/06 10:27:49;;;;;;;7.00;3.70;;;;;;;35.78;33.10;97591.23;104635;1276;61196;-22
2023/08/06 10:30:24;;;;;;;8.10;3.60;;;;;;;35.89;32.60;97588.30;104801;1271;61212;-22
2023/08/06 10:33:03;;;;;;;6.00;3.50;;;;;;;35.88;32.82;97591.30;104781;1272;62088;-22
2023/08/06 10:35:34;;;;;;;8.10;3.50;;;;;;;36.02;32.63;97587.98;104583;1269;67855;-22
2023/08/06 10:38:05;;;;;;;6.80;3.40;;;;;;;36.14;32.52;97585.39;102933;1268;2784414;-23
2023/08/06 10:40:33;;;;;;;11.20;3.40;;;;;;;36.17;32.65;97585.14;105177;1262;61164;-22
2023/08/06 10:43:01;;;;;;;7.30;3.60;;;;;;;36.22;32.43;97576.65;104884;1263;61055;-22
2023/08/06 10:45:30;;;;;;;5.70;3.00;;;;;;;36.18;32.86;97582.52;104859;1263;66286;-22
2023/08/06 10:47:58;;;;;;;8.10;3.50;;;;;;;36.23;32.76;97577.13;104967;1268;67318;-22
2023/08/06 10:50:26;;;;;;;8.20;3.80;;;;;;;36.49;32.41;97579.55;105047;1264;66402;-22
2023/08/06 10:52:54;;;;;;;7.40;2.80;;;;;;;36.50;31.70;97575.94;105109;1263;61062;-22
2023/08/06 10:55:26;;;;;;;6.40;3.00;;;;;;;36.37;31.12;97568.12;105167;1263;61153;-22
2023/08/06 10:57:55;;;;;;;6.70;2.80;;;;;;;36.06;30.83;97561.27;104993;1268;65530;-22
2023/08/06 11:00:26;;;;;;;4.00;3.10;;;;;;;35.86;31.34;97564.05;105128;1262;68315;-23
2023/08/06 11:02:54;;;;;;;9.20;3.60;;;;;;;35.73;31.43;97552.06;105171;1263;65276;-22
2023/08/06 11:05:23;;;;;;;9.20;3.40;;;;;;;35.68;31.61;97553.44;105119;1267;61119;-22
2023/08/06 11:07:52;;;;;;;6.50;2.90;;;;;;;35.82;31.96;97557.35;105098;1267;61199;-22
2023/08/06 11:10:20;;;;;;;4.00;3.30;;;;;;;35.86;31.50;97556.18;105352;1264;62903;-22
2023/08/06 11:12:48;;;;;;;10.40;3.20;;;;;;;35.73;31.62;97549.98;105238;1262;67833;-22
2023/08/06 11:15:16;;;;;;;9.10;3.60;;;;;;;35.60;31.90;97540.68;105364;1264;62692;-22
2023/08/06 11:17:43;;;;;;;6.10;3.20;;;;;;;35.54;32.37;97541.45;105384;1262;61131;-22
2023/08/06 11:20:11;;;;;;;10.20;3.20;;;;;;;35.60;32.18;97537.88;105385;1263;61018;-22
2023/08/06 11:22:42;;;;;;;9.10;3.40;;;;;;;35.58;31.82;97533.08;105203;1260;66691;-22
2023/08/06 11:25:10;;;;;;;8.10;3.70;;;;;;;35.47;32.23;97530.66;105118;1264;64330;-22
2023/08/06 11:27:38;;;;;;;7.80;2.90;;;;;;;35.51;32.35;97532.76;105387;1262;65157;-22
2023/08/06 11:30:06;;;;;;;5.70;2.80;;;;;;;35.71;32.27;97538.51;105362;1262;61113;-22
2023/08/06 11:32:45;;;;;;;9.40;3.10;;;;;;;36.00;31.99;97527.39;105251;1258;61125;-22
2023/08/06 11:35:14;;;;;;;9.50;3.10;;;;;;;35.83;31.45;97525.13;105264;1266;66467;-22
2023/08/06 11:37:45;;;;;;;5.10;2.70;;;;;;;35.60;32.11;97528.30;105217;1267;64344;-22
2023/08/06 11:40:16;;;;;;;6.50;3.30;;;;;;;35.68;32.17;97523.60;105278;1260;63838;-22
2023/08/06 11:42:46;;;;;;;10.50;3.40;;;;;;;35.78;31.90;97519.38;105173;1267;61159;-23
2023/08/06 11:45:14;;;;;;;5.40;3.20;;;;;;;35.72;32.36;97519.02;105252;1257;61076;-24
2023/08/06 11:47:42;;;;;;;5.40;3.30;;;;;;;35.80;32.68;97520.84;105283;1259;66981;-23
2023/08/06 11:50:21;;;;;;;7.10;3.40;;;;;;;35.87;31.84;97506.46;105080;1266;67866;-23